createdAt,value
2018-11-10T00:00:20.935Z,0
2018-11-10T00:00:53.007Z,0
2018-11-10T00:01:25.079Z,0
2018-11-10T00:01:57.159Z,0
2018-11-10T00:02:29.223Z,0
2018-11-10T00:03:01.284Z,0
2018-11-10T00:03:33.390Z,0
2018-11-10T00:04:05.475Z,0
2018-11-10T00:04:37.537Z,0
2018-11-10T00:05:09.613Z,0
2018-11-10T00:05:41.689Z,0
2018-11-10T00:06:13.748Z,0
2018-11-10T00:06:45.814Z,0
2018-11-10T00:07:17.871Z,0
2018-11-10T00:07:49.995Z,0
2018-11-10T00:08:22.174Z,0
2018-11-10T00:08:54.104Z,0
2018-11-10T00:09:26.163Z,0
2018-11-10T00:09:58.235Z,0
2018-11-10T00:10:30.298Z,0
2018-11-10T00:11:02.396Z,0
2018-11-10T00:11:34.442Z,0
2018-11-10T00:12:06.499Z,0
2018-11-10T00:12:38.552Z,0
2018-11-10T00:13:10.618Z,0
2018-11-10T00:13:42.684Z,0
2018-11-10T00:14:14.794Z,0
2018-11-10T00:14:46.856Z,0
2018-11-10T00:15:18.936Z,0
2018-11-10T00:15:51.058Z,0
2018-11-10T00:16:23.224Z,0
2018-11-10T00:16:55.252Z,0
2018-11-10T00:17:27.314Z,0
2018-11-10T00:17:59.392Z,0
2018-11-10T00:18:31.470Z,0
2018-11-10T00:19:03.511Z,0
2018-11-10T00:19:35.593Z,0
2018-11-10T00:20:07.674Z,0
2018-11-10T00:20:39.755Z,0
2018-11-10T00:21:11.820Z,0
2018-11-10T00:21:43.869Z,0
2018-11-10T00:22:15.924Z,0
2018-11-10T00:22:48.005Z,0
2018-11-10T00:23:20.072Z,0
2018-11-10T00:23:52.158Z,0
2018-11-10T00:24:24.240Z,0
2018-11-10T00:24:56.304Z,0
2018-11-10T00:25:28.385Z,0
2018-11-10T00:26:00.488Z,0
2018-11-10T00:26:32.554Z,0
2018-11-10T00:27:04.632Z,0
2018-11-10T00:27:36.692Z,0
2018-11-10T00:28:08.742Z,0
2018-11-10T00:28:40.810Z,0
2018-11-10T00:29:12.903Z,0
2018-11-10T00:29:44.949Z,0
2018-11-10T00:30:17.017Z,0
2018-11-10T00:30:49.094Z,0
2018-11-10T00:31:21.169Z,0
2018-11-10T00:31:53.248Z,0
2018-11-10T00:32:25.278Z,0
2018-11-10T00:32:57.333Z,0
2018-11-10T00:33:29.425Z,0
2018-11-10T00:34:01.488Z,0
2018-11-10T00:34:33.595Z,0
2018-11-10T00:35:05.661Z,0
2018-11-10T00:35:37.717Z,0
2018-11-10T00:36:09.787Z,0
2018-11-10T00:36:41.879Z,0
2018-11-10T00:37:13.972Z,0
2018-11-10T00:37:46.028Z,0
2018-11-10T00:38:18.085Z,0
2018-11-10T00:38:50.152Z,0
2018-11-10T00:39:22.201Z,0
2018-11-10T00:39:54.258Z,0
2018-11-10T00:40:26.342Z,0
2018-11-10T00:40:58.423Z,0
2018-11-10T00:41:30.487Z,0
2018-11-10T00:42:02.574Z,0
2018-11-10T00:42:34.655Z,0
2018-11-10T00:43:06.738Z,0
2018-11-10T00:43:38.825Z,0
2018-11-10T00:44:10.910Z,0
2018-11-10T00:44:42.992Z,0
2018-11-10T00:45:15.660Z,0
2018-11-10T00:45:47.767Z,0
2018-11-10T00:46:19.825Z,0
2018-11-10T00:46:51.911Z,0
2018-11-10T00:47:23.966Z,0
2018-11-10T00:47:56.006Z,0
2018-11-10T00:48:28.083Z,0
2018-11-10T00:49:00.143Z,0
2018-11-10T00:49:32.223Z,0
2018-11-10T00:50:04.263Z,0
2018-11-10T00:50:36.332Z,0
2018-11-10T00:51:08.430Z,0
2018-11-10T00:51:40.504Z,0
2018-11-10T00:52:12.575Z,0
2018-11-10T00:52:44.667Z,0
2018-11-10T00:53:16.727Z,0
2018-11-10T00:53:48.789Z,0
2018-11-10T00:54:20.846Z,0
2018-11-10T00:54:52.883Z,0
2018-11-10T00:55:24.934Z,0
2018-11-10T00:55:57.001Z,0
2018-11-10T00:56:29.074Z,0
2018-11-10T00:57:01.177Z,0
2018-11-10T00:57:33.241Z,0
2018-11-10T00:58:05.286Z,0
2018-11-10T00:58:37.371Z,0
2018-11-10T00:59:09.445Z,0
2018-11-10T00:59:41.498Z,0
2018-11-10T01:00:13.569Z,0
2018-11-10T01:00:45.615Z,0
2018-11-10T01:01:17.671Z,0
2018-11-10T01:01:49.727Z,0
2018-11-10T01:02:21.768Z,0
2018-11-10T01:02:53.868Z,0
2018-11-10T01:03:25.958Z,0
2018-11-10T01:03:58.029Z,0
2018-11-10T01:04:30.107Z,0
2018-11-10T01:05:02.197Z,0
2018-11-10T01:05:34.342Z,0
2018-11-10T01:06:06.366Z,0
2018-11-10T01:06:38.444Z,0
2018-11-10T01:07:10.525Z,0
2018-11-10T01:07:42.576Z,0
2018-11-10T01:08:14.659Z,0
2018-11-10T01:08:46.752Z,0
2018-11-10T01:09:18.841Z,0
2018-11-10T01:09:50.924Z,0
2018-11-10T01:10:22.952Z,0
2018-11-10T01:10:55.001Z,0
2018-11-10T01:11:27.079Z,0
2018-11-10T01:11:59.162Z,0
2018-11-10T01:12:31.276Z,0
2018-11-10T01:13:03.364Z,0
2018-11-10T01:13:35.453Z,0
2018-11-10T01:14:07.550Z,0
2018-11-10T01:14:39.631Z,0
2018-11-10T01:15:11.703Z,0
2018-11-10T01:15:43.789Z,0
2018-11-10T01:16:15.821Z,0
2018-11-10T01:16:47.901Z,0
2018-11-10T01:17:19.960Z,0
2018-11-10T01:17:52.067Z,0
2018-11-10T01:18:24.115Z,0
2018-11-10T01:18:56.188Z,0
2018-11-10T01:19:28.264Z,0
2018-11-10T01:20:00.333Z,0
2018-11-10T01:20:32.423Z,0
2018-11-10T01:21:04.474Z,0
2018-11-10T01:21:36.557Z,0
2018-11-10T01:22:08.635Z,0
2018-11-10T01:22:40.715Z,0
2018-11-10T01:23:12.783Z,0
2018-11-10T01:23:44.872Z,0
2018-11-10T01:24:16.908Z,0
2018-11-10T01:24:48.958Z,0
2018-11-10T01:25:21.063Z,0
2018-11-10T01:25:53.149Z,0
2018-11-10T01:26:25.228Z,0
2018-11-10T01:26:57.323Z,0
2018-11-10T01:27:29.385Z,0
2018-11-10T01:28:01.600Z,0
2018-11-10T01:28:33.570Z,0
2018-11-10T01:29:05.651Z,0
2018-11-10T01:29:37.737Z,0
2018-11-10T01:30:09.854Z,0
2018-11-10T01:30:41.934Z,0
2018-11-10T01:31:14.017Z,0
2018-11-10T01:31:46.102Z,0
2018-11-10T01:32:18.167Z,0
2018-11-10T01:32:50.213Z,0
2018-11-10T01:33:22.253Z,0
2018-11-10T01:33:54.295Z,0
2018-11-10T01:34:26.354Z,0
2018-11-10T01:34:58.438Z,0
2018-11-10T01:35:30.512Z,0
2018-11-10T01:36:02.515Z,0
2018-11-10T01:36:34.604Z,0
2018-11-10T01:37:06.670Z,0
2018-11-10T01:37:38.723Z,0
2018-11-10T01:38:10.785Z,0
2018-11-10T01:38:42.856Z,0
2018-11-10T01:39:14.927Z,0
2018-11-10T01:39:47.003Z,0
2018-11-10T01:40:19.082Z,0
2018-11-10T01:40:51.125Z,0
2018-11-10T01:41:23.171Z,0
2018-11-10T01:41:55.219Z,0
2018-11-10T01:42:27.277Z,0
2018-11-10T01:42:59.367Z,0
2018-11-10T01:43:31.405Z,0
2018-11-10T01:44:03.498Z,0
2018-11-10T01:44:35.592Z,0
2018-11-10T01:45:07.686Z,0
2018-11-10T01:45:39.753Z,0
2018-11-10T01:46:11.828Z,0
2018-11-10T01:46:43.916Z,0
2018-11-10T01:47:16.008Z,0
2018-11-10T01:47:48.083Z,0
2018-11-10T01:48:20.170Z,0
2018-11-10T01:48:52.247Z,0
2018-11-10T01:49:24.329Z,0
2018-11-10T01:49:56.405Z,0
2018-11-10T01:50:28.480Z,0
2018-11-10T01:51:00.539Z,0
2018-11-10T01:51:32.658Z,0
2018-11-10T01:52:04.750Z,0
2018-11-10T01:52:36.839Z,0
2018-11-10T01:53:08.897Z,0
2018-11-10T01:53:40.974Z,0
2018-11-10T01:54:13.029Z,0
2018-11-10T01:54:45.112Z,0
2018-11-10T01:55:17.197Z,0
2018-11-10T01:55:49.258Z,0
2018-11-10T01:56:21.336Z,0
2018-11-10T01:56:53.391Z,0
2018-11-10T01:57:25.421Z,0
2018-11-10T01:57:57.463Z,0
2018-11-10T01:58:29.543Z,0
2018-11-10T01:59:01.648Z,0
2018-11-10T01:59:33.726Z,0
2018-11-10T02:00:05.795Z,0
2018-11-10T02:00:37.923Z,0
2018-11-10T02:01:10.007Z,0
2018-11-10T02:01:42.092Z,0
2018-11-10T02:02:14.174Z,0
2018-11-10T02:02:46.241Z,0
2018-11-10T02:03:18.306Z,0
2018-11-10T02:03:50.390Z,0
2018-11-10T02:04:22.472Z,0
2018-11-10T02:04:54.553Z,0
2018-11-10T02:05:26.604Z,0
2018-11-10T02:05:58.661Z,0
2018-11-10T02:06:30.792Z,0
2018-11-10T02:07:02.821Z,0
2018-11-10T02:07:34.865Z,0
2018-11-10T02:08:06.933Z,0
2018-11-10T02:08:39.013Z,0
2018-11-10T02:09:11.091Z,0
2018-11-10T02:09:43.158Z,0
2018-11-10T02:10:15.236Z,0
2018-11-10T02:10:47.301Z,0
2018-11-10T02:11:19.438Z,0
2018-11-10T02:11:51.485Z,0
2018-11-10T02:12:23.558Z,0
2018-11-10T02:12:55.633Z,0
2018-11-10T02:13:27.672Z,0
2018-11-10T02:13:59.723Z,0
2018-11-10T02:14:31.813Z,0
2018-11-10T02:15:03.907Z,0
2018-11-10T02:15:35.998Z,0
2018-11-10T02:16:08.078Z,0
2018-11-10T02:16:40.171Z,0
2018-11-10T02:17:12.254Z,0
2018-11-10T02:17:44.313Z,0
2018-11-10T02:18:16.380Z,0
2018-11-10T02:18:48.483Z,0
2018-11-10T02:19:20.537Z,0
2018-11-10T02:19:52.620Z,0
2018-11-10T02:20:24.683Z,0
2018-11-10T02:20:56.736Z,0
2018-11-10T02:21:28.803Z,0
2018-11-10T02:22:00.855Z,0
2018-11-10T02:22:32.936Z,0
2018-11-10T02:23:05.004Z,0
2018-11-10T02:23:37.085Z,0
2018-11-10T02:24:09.143Z,0
2018-11-10T02:24:41.226Z,0
2018-11-10T02:25:13.319Z,0
2018-11-10T02:25:45.366Z,0
2018-11-10T02:26:17.427Z,0
2018-11-10T02:26:49.503Z,0
2018-11-10T02:27:21.594Z,0
2018-11-10T02:27:53.689Z,0
2018-11-10T02:28:25.780Z,0
2018-11-10T02:28:57.839Z,0
2018-11-10T02:29:29.901Z,0
2018-11-10T02:30:01.983Z,0
2018-11-10T02:30:34.089Z,0
2018-11-10T02:31:06.149Z,0
2018-11-10T02:31:38.250Z,0
2018-11-10T02:32:10.338Z,0
2018-11-10T02:32:42.419Z,0
2018-11-10T02:33:14.515Z,0
2018-11-10T02:33:46.601Z,0
2018-11-10T02:34:18.679Z,0
2018-11-10T02:34:50.757Z,0
2018-11-10T02:35:22.803Z,0
2018-11-10T02:35:54.857Z,0
2018-11-10T02:36:26.954Z,0
2018-11-10T02:36:59.015Z,0
2018-11-10T02:37:31.070Z,0
2018-11-10T02:38:03.146Z,0
2018-11-10T02:38:35.291Z,0
2018-11-10T02:39:07.304Z,0
2018-11-10T02:39:39.343Z,0
2018-11-10T02:40:11.394Z,0
2018-11-10T02:40:43.452Z,0
2018-11-10T02:41:15.536Z,0
2018-11-10T02:41:47.625Z,0
2018-11-10T02:42:19.715Z,0
2018-11-10T02:42:51.797Z,0
2018-11-10T02:43:23.860Z,0
2018-11-10T02:43:55.953Z,0
2018-11-10T02:44:28.031Z,0
2018-11-10T02:45:00.050Z,0
2018-11-10T02:45:32.119Z,0
2018-11-10T02:46:04.204Z,0
2018-11-10T02:46:36.293Z,0
2018-11-10T02:47:08.392Z,0
2018-11-10T02:47:40.492Z,0
2018-11-10T02:48:12.581Z,0
2018-11-10T02:48:44.658Z,0
2018-11-10T02:49:16.687Z,0
2018-11-10T02:49:48.751Z,0
2018-11-10T02:50:20.818Z,0
2018-11-10T02:50:52.892Z,0
2018-11-10T02:51:24.981Z,0
2018-11-10T02:51:57.084Z,0
2018-11-10T02:52:29.169Z,0
2018-11-10T02:53:01.238Z,0
2018-11-10T02:53:33.307Z,0
2018-11-10T02:54:05.393Z,0
2018-11-10T02:54:37.463Z,0
2018-11-10T02:55:09.554Z,0
2018-11-10T02:55:41.638Z,0
2018-11-10T02:56:13.698Z,0
2018-11-10T02:56:45.782Z,0
2018-11-10T02:57:17.859Z,0
2018-11-10T02:57:49.924Z,0
2018-11-10T02:58:22.002Z,0
2018-11-10T02:58:54.043Z,0
2018-11-10T02:59:26.115Z,0
2018-11-10T02:59:58.189Z,0
2018-11-10T03:00:30.263Z,0
2018-11-10T03:01:02.347Z,0
2018-11-10T03:01:34.424Z,0
2018-11-10T03:02:06.526Z,0
2018-11-10T03:02:38.594Z,0
2018-11-10T03:03:10.660Z,0
2018-11-10T03:03:42.736Z,0
2018-11-10T03:04:14.818Z,0
2018-11-10T03:04:46.866Z,0
2018-11-10T03:05:18.955Z,0
2018-11-10T03:05:51.033Z,0
2018-11-10T03:06:23.106Z,0
2018-11-10T03:06:55.167Z,0
2018-11-10T03:07:27.230Z,0
2018-11-10T03:07:59.276Z,0
2018-11-10T03:08:31.325Z,0
2018-11-10T03:09:03.414Z,0
2018-11-10T03:09:35.486Z,0
2018-11-10T03:10:07.552Z,0
2018-11-10T03:10:39.684Z,0
2018-11-10T03:11:11.718Z,0
2018-11-10T03:11:43.784Z,0
2018-11-10T03:12:15.853Z,0
2018-11-10T03:12:47.930Z,0
2018-11-10T03:13:19.988Z,0
2018-11-10T03:13:52.015Z,0
2018-11-10T03:14:24.071Z,0
2018-11-10T03:14:56.118Z,0
2018-11-10T03:15:28.172Z,0
2018-11-10T03:16:00.249Z,0
2018-11-10T03:16:32.466Z,0
2018-11-10T03:17:04.624Z,0
2018-11-10T03:17:36.661Z,0
2018-11-10T03:18:08.729Z,0
2018-11-10T03:18:40.813Z,0
2018-11-10T03:19:12.907Z,0
2018-11-10T03:19:44.969Z,0
2018-11-10T03:20:17.024Z,0
2018-11-10T03:20:49.097Z,0
2018-11-10T03:21:21.149Z,0
2018-11-10T03:21:53.213Z,0
2018-11-10T03:22:25.289Z,0
2018-11-10T03:22:57.382Z,0
2018-11-10T03:23:29.442Z,0
2018-11-10T03:24:01.496Z,0
2018-11-10T03:24:33.569Z,0
2018-11-10T03:25:05.635Z,0
2018-11-10T03:25:37.717Z,0
2018-11-10T03:26:09.796Z,0
2018-11-10T03:26:41.858Z,0
2018-11-10T03:27:13.905Z,0
2018-11-10T03:27:45.937Z,0
2018-11-10T03:28:17.991Z,0
2018-11-10T03:28:50.054Z,0
2018-11-10T03:29:22.108Z,0
2018-11-10T03:29:54.156Z,0
2018-11-10T03:30:26.213Z,0
2018-11-10T03:30:58.284Z,0
2018-11-10T03:31:30.363Z,0
2018-11-10T03:32:02.458Z,0
2018-11-10T03:32:34.533Z,0
2018-11-10T03:33:06.612Z,0
2018-11-10T03:33:38.672Z,0
2018-11-10T03:34:10.733Z,0
2018-11-10T03:34:42.825Z,0
2018-11-10T03:35:14.895Z,0
2018-11-10T03:35:46.979Z,0
2018-11-10T03:36:19.024Z,0
2018-11-10T03:36:51.119Z,0
2018-11-10T03:37:23.158Z,0
2018-11-10T03:37:55.199Z,0
2018-11-10T03:38:27.270Z,0
2018-11-10T03:38:59.362Z,0
2018-11-10T03:39:31.444Z,0
2018-11-10T03:40:03.518Z,0
2018-11-10T03:40:35.590Z,0
2018-11-10T03:41:07.673Z,0
2018-11-10T03:41:39.767Z,0
2018-11-10T03:42:11.805Z,0
2018-11-10T03:42:43.892Z,0
2018-11-10T03:43:15.961Z,0
2018-11-10T03:43:48.001Z,0
2018-11-10T03:44:20.091Z,0
2018-11-10T03:44:52.153Z,0
2018-11-10T03:45:24.228Z,0
2018-11-10T03:45:56.268Z,0
2018-11-10T03:46:28.318Z,0
2018-11-10T03:47:00.416Z,0
2018-11-10T03:47:32.493Z,0
2018-11-10T03:48:04.576Z,0
2018-11-10T03:48:36.698Z,0
2018-11-10T03:49:08.762Z,0
2018-11-10T03:49:40.807Z,0
2018-11-10T03:50:12.897Z,0
2018-11-10T03:50:44.995Z,0
2018-11-10T03:51:17.067Z,0
2018-11-10T03:51:49.174Z,0
2018-11-10T03:52:21.241Z,0
2018-11-10T03:52:53.273Z,0
2018-11-10T03:53:25.349Z,0
2018-11-10T03:53:57.430Z,0
2018-11-10T03:54:29.464Z,0
2018-11-10T03:55:01.545Z,0
2018-11-10T03:55:33.589Z,0
2018-11-10T03:56:05.634Z,0
2018-11-10T03:56:37.675Z,0
2018-11-10T03:57:09.728Z,0
2018-11-10T03:57:41.797Z,0
2018-11-10T03:58:13.879Z,0
2018-11-10T03:58:46.412Z,0
2018-11-10T03:59:18.460Z,0
2018-11-10T03:59:50.537Z,0
2018-11-10T04:00:22.623Z,0
2018-11-10T04:00:54.701Z,0
2018-11-10T04:01:26.740Z,0
2018-11-10T04:01:58.819Z,0
2018-11-10T04:02:30.870Z,0
2018-11-10T04:03:02.955Z,0
2018-11-10T04:03:34.997Z,0
2018-11-10T04:04:07.075Z,0
2018-11-10T04:04:39.159Z,0
2018-11-10T04:05:11.241Z,0
2018-11-10T04:05:43.320Z,0
2018-11-10T04:06:15.361Z,0
2018-11-10T04:06:47.438Z,0
2018-11-10T04:07:19.495Z,0
2018-11-10T04:07:51.581Z,0
2018-11-10T04:08:23.673Z,0
2018-11-10T04:08:55.734Z,0
2018-11-10T04:09:27.823Z,0
2018-11-10T04:09:59.877Z,0
2018-11-10T04:10:31.926Z,0
2018-11-10T04:11:04.002Z,0
2018-11-10T04:11:36.095Z,0
2018-11-10T04:12:08.196Z,0
2018-11-10T04:12:40.245Z,0
2018-11-10T04:13:12.301Z,0
2018-11-10T04:13:44.345Z,0
2018-11-10T04:14:16.409Z,0
2018-11-10T04:14:48.499Z,0
2018-11-10T04:15:20.564Z,0
2018-11-10T04:15:52.612Z,0
2018-11-10T04:16:24.677Z,0
2018-11-10T04:16:56.767Z,0
2018-11-10T04:17:28.845Z,0
2018-11-10T04:18:00.918Z,0
2018-11-10T04:18:32.997Z,0
2018-11-10T04:19:05.069Z,0
2018-11-10T04:19:37.152Z,0
2018-11-10T04:20:09.214Z,0
2018-11-10T04:20:41.312Z,0
2018-11-10T04:21:13.384Z,0
2018-11-10T04:21:45.479Z,0
2018-11-10T04:22:17.563Z,0
2018-11-10T04:22:49.650Z,0
2018-11-10T04:23:21.738Z,0
2018-11-10T04:23:53.821Z,0
2018-11-10T04:24:25.874Z,0
2018-11-10T04:24:57.947Z,0
2018-11-10T04:25:29.994Z,0
2018-11-10T04:26:02.065Z,0
2018-11-10T04:26:34.117Z,0
2018-11-10T04:27:06.180Z,0
2018-11-10T04:27:38.210Z,0
2018-11-10T04:28:10.273Z,0
2018-11-10T04:28:42.327Z,0
2018-11-10T04:29:14.370Z,0
2018-11-10T04:29:46.426Z,0
2018-11-10T04:30:18.483Z,0
2018-11-10T04:30:50.565Z,0
2018-11-10T04:31:22.652Z,0
2018-11-10T04:31:54.751Z,0
2018-11-10T04:32:26.825Z,0
2018-11-10T04:32:58.886Z,0
2018-11-10T04:33:30.983Z,0
2018-11-10T04:34:03.058Z,0
2018-11-10T04:34:35.117Z,0
2018-11-10T04:35:07.201Z,0
2018-11-10T04:35:39.273Z,0
2018-11-10T04:36:11.368Z,0
2018-11-10T04:36:43.419Z,0
2018-11-10T04:37:15.455Z,0
2018-11-10T04:37:47.517Z,0
2018-11-10T04:38:19.597Z,0
2018-11-10T04:38:51.636Z,0
2018-11-10T04:39:23.721Z,0
2018-11-10T04:39:55.782Z,0
2018-11-10T04:40:27.867Z,0
2018-11-10T04:40:59.953Z,0
2018-11-10T04:41:32.012Z,0
2018-11-10T04:42:04.097Z,0
2018-11-10T04:42:36.168Z,0
2018-11-10T04:43:08.235Z,0
2018-11-10T04:43:40.312Z,0
2018-11-10T04:44:12.393Z,0
2018-11-10T04:44:44.474Z,0
2018-11-10T04:45:16.555Z,0
2018-11-10T04:45:48.616Z,0
2018-11-10T04:46:20.656Z,0
2018-11-10T04:46:52.726Z,0
2018-11-10T04:47:24.783Z,0
2018-11-10T04:47:56.833Z,0
2018-11-10T04:48:28.920Z,0
2018-11-10T04:49:01.001Z,0
2018-11-10T04:49:33.109Z,0
2018-11-10T04:50:05.151Z,0
2018-11-10T04:50:37.204Z,0
2018-11-10T04:51:09.285Z,0
2018-11-10T04:51:41.342Z,0
2018-11-10T04:52:13.426Z,0
2018-11-10T04:52:45.484Z,0
2018-11-10T04:53:17.576Z,0
2018-11-10T04:53:49.675Z,0
2018-11-10T04:54:21.723Z,0
2018-11-10T04:54:53.770Z,0
2018-11-10T04:55:25.834Z,0
2018-11-10T04:55:57.902Z,0
2018-11-10T04:56:29.947Z,0
2018-11-10T04:57:01.993Z,0
2018-11-10T04:57:34.069Z,0
2018-11-10T04:58:06.118Z,0
2018-11-10T04:58:38.202Z,0
2018-11-10T04:59:10.287Z,0
2018-11-10T04:59:42.381Z,0
2018-11-10T05:00:14.448Z,0
2018-11-10T05:00:46.544Z,0
2018-11-10T05:01:18.724Z,0
2018-11-10T05:01:50.761Z,0
2018-11-10T05:02:22.842Z,0
2018-11-10T05:02:54.913Z,0
2018-11-10T05:03:27.008Z,0
2018-11-10T05:03:59.094Z,0
2018-11-10T05:04:31.143Z,0
2018-11-10T05:05:03.181Z,0
2018-11-10T05:05:35.283Z,0
2018-11-10T05:06:07.319Z,0
2018-11-10T05:06:39.396Z,0
2018-11-10T05:07:11.448Z,0
2018-11-10T05:07:43.493Z,0
2018-11-10T05:08:15.546Z,0
2018-11-10T05:08:48.449Z,0
2018-11-10T05:09:20.519Z,0
2018-11-10T05:09:52.590Z,0
2018-11-10T05:10:24.664Z,0
2018-11-10T05:10:56.721Z,0
2018-11-10T05:11:28.800Z,0
2018-11-10T05:12:00.831Z,0
2018-11-10T05:12:32.908Z,0
2018-11-10T05:13:04.981Z,0
2018-11-10T05:13:37.036Z,0
2018-11-10T05:14:09.122Z,0
2018-11-10T05:14:41.159Z,0
2018-11-10T05:15:13.246Z,0
2018-11-10T05:15:45.291Z,0
2018-11-10T05:16:17.377Z,0
2018-11-10T05:16:49.450Z,0
2018-11-10T05:17:21.542Z,0
2018-11-10T05:17:53.592Z,0
2018-11-10T05:18:25.685Z,0
2018-11-10T05:18:57.751Z,0
2018-11-10T05:19:29.833Z,0
2018-11-10T05:20:01.917Z,0
2018-11-10T05:20:33.971Z,0
2018-11-10T05:21:06.038Z,0
2018-11-10T05:21:38.117Z,0
2018-11-10T05:22:10.216Z,0
2018-11-10T05:22:42.304Z,0
2018-11-10T05:23:14.368Z,0
2018-11-10T05:23:46.406Z,0
2018-11-10T05:24:18.468Z,0
2018-11-10T05:24:50.523Z,0
2018-11-10T05:25:22.616Z,0
2018-11-10T05:25:54.680Z,0
2018-11-10T05:26:26.762Z,0
2018-11-10T05:26:58.860Z,0
2018-11-10T05:27:30.970Z,0
2018-11-10T05:28:03.041Z,0
2018-11-10T05:28:35.116Z,0
2018-11-10T05:29:07.193Z,0
2018-11-10T05:29:39.279Z,0
2018-11-10T05:30:11.348Z,0
2018-11-10T05:30:43.392Z,0
2018-11-10T05:31:15.528Z,0
2018-11-10T05:31:47.553Z,0
2018-11-10T05:32:19.612Z,0
2018-11-10T05:32:51.659Z,0
2018-11-10T05:33:23.730Z,0
2018-11-10T05:33:55.764Z,0
2018-11-10T05:34:27.839Z,0
2018-11-10T05:34:59.913Z,0
2018-11-10T05:35:31.980Z,0
2018-11-10T05:36:04.100Z,0
2018-11-10T05:36:36.176Z,0
2018-11-10T05:37:08.247Z,0
2018-11-10T05:37:40.321Z,0
2018-11-10T05:38:12.395Z,0
2018-11-10T05:38:44.460Z,0
2018-11-10T05:39:16.530Z,0
2018-11-10T05:39:48.607Z,0
2018-11-10T05:40:20.658Z,0
2018-11-10T05:40:52.726Z,0
2018-11-10T05:41:24.781Z,0
2018-11-10T05:41:56.855Z,0
2018-11-10T05:42:28.928Z,0
2018-11-10T05:43:00.991Z,0
2018-11-10T05:43:33.074Z,0
2018-11-10T05:44:05.149Z,0
2018-11-10T05:44:37.229Z,0
2018-11-10T05:45:09.333Z,0
2018-11-10T05:45:41.397Z,0
2018-11-10T05:46:13.487Z,0
2018-11-10T05:46:45.497Z,0
2018-11-10T05:47:17.571Z,0
2018-11-10T05:47:49.631Z,0
2018-11-10T05:48:21.690Z,0
2018-11-10T05:48:53.753Z,0
2018-11-10T05:49:25.820Z,0
2018-11-10T05:49:57.893Z,0
2018-11-10T05:50:29.975Z,0
2018-11-10T05:51:02.041Z,0
2018-11-10T05:51:34.107Z,0
2018-11-10T05:52:06.197Z,0
2018-11-10T05:52:38.287Z,0
2018-11-10T05:53:10.381Z,0
2018-11-10T05:53:42.422Z,0
2018-11-10T05:54:14.500Z,0
2018-11-10T05:54:46.539Z,0
2018-11-10T05:55:18.611Z,0
2018-11-10T05:55:50.660Z,0
2018-11-10T05:56:22.739Z,0
2018-11-10T05:56:54.804Z,0
2018-11-10T05:57:26.842Z,0
2018-11-10T05:57:58.918Z,0
2018-11-10T05:58:30.993Z,0
2018-11-10T05:59:03.043Z,0
2018-11-10T05:59:35.132Z,0
2018-11-10T06:00:07.198Z,0
2018-11-10T06:00:39.231Z,0
2018-11-10T06:01:11.296Z,0
2018-11-10T06:01:43.364Z,0
2018-11-10T06:02:15.427Z,0
2018-11-10T06:02:47.523Z,0
2018-11-10T06:03:19.779Z,0
2018-11-10T06:03:51.666Z,0
2018-11-10T06:04:23.749Z,0
2018-11-10T06:04:55.854Z,0
2018-11-10T06:05:27.898Z,0
2018-11-10T06:05:59.945Z,0
2018-11-10T06:06:32.026Z,0
2018-11-10T06:07:04.076Z,0
2018-11-10T06:07:36.134Z,0
2018-11-10T06:08:08.173Z,0
2018-11-10T06:08:40.250Z,0
2018-11-10T06:09:12.334Z,0
2018-11-10T06:09:44.434Z,0
2018-11-10T06:10:16.593Z,0
2018-11-10T06:10:48.521Z,0
2018-11-10T06:11:20.571Z,0
2018-11-10T06:11:52.611Z,0
2018-11-10T06:12:24.705Z,0
2018-11-10T06:12:56.764Z,0
2018-11-10T06:13:28.837Z,0
2018-11-10T06:14:00.919Z,0
2018-11-10T06:14:32.994Z,0
2018-11-10T06:15:05.055Z,0
2018-11-10T06:15:37.103Z,0
2018-11-10T06:16:09.230Z,0
2018-11-10T06:16:41.236Z,0
2018-11-10T06:17:13.333Z,0
2018-11-10T06:17:45.403Z,0
2018-11-10T06:18:17.482Z,0
2018-11-10T06:18:49.657Z,4
2018-11-10T06:19:21.623Z,4
2018-11-10T06:19:53.694Z,4
2018-11-10T06:20:25.779Z,4
2018-11-10T06:20:57.863Z,4
2018-11-10T06:21:29.936Z,0
2018-11-10T06:22:02.026Z,0
2018-11-10T06:22:34.112Z,0
2018-11-10T06:23:06.178Z,4
2018-11-10T06:23:38.249Z,4
2018-11-10T06:24:10.315Z,4
2018-11-10T06:24:42.397Z,0
2018-11-10T06:25:14.486Z,4
2018-11-10T06:25:46.537Z,4
2018-11-10T06:26:18.608Z,4
2018-11-10T06:26:50.692Z,4
2018-11-10T06:27:22.771Z,4
2018-11-10T06:27:54.827Z,8
2018-11-10T06:28:26.867Z,4
2018-11-10T06:28:58.899Z,8
2018-11-10T06:29:30.937Z,8
2018-11-10T06:30:03.021Z,8
2018-11-10T06:30:35.087Z,8
2018-11-10T06:31:07.154Z,8
2018-11-10T06:31:39.241Z,8
2018-11-10T06:32:11.302Z,8
2018-11-10T06:32:43.504Z,12
2018-11-10T06:33:15.653Z,12
2018-11-10T06:33:47.739Z,8
2018-11-10T06:34:19.774Z,8
2018-11-10T06:34:51.794Z,8
2018-11-10T06:35:23.872Z,12
2018-11-10T06:35:55.975Z,8
2018-11-10T06:36:28.031Z,12
2018-11-10T06:37:00.118Z,12
2018-11-10T06:37:32.188Z,16
2018-11-10T06:38:04.236Z,12
2018-11-10T06:38:36.313Z,12
2018-11-10T06:39:08.384Z,12
2018-11-10T06:39:40.467Z,16
2018-11-10T06:40:12.486Z,16
2018-11-10T06:40:44.568Z,16
2018-11-10T06:41:16.692Z,20
2018-11-10T06:41:48.724Z,20
2018-11-10T06:42:20.797Z,20
2018-11-10T06:42:52.859Z,20
2018-11-10T06:43:24.954Z,20
2018-11-10T06:43:57.040Z,24
2018-11-10T06:44:29.276Z,24
2018-11-10T06:45:01.326Z,24
2018-11-10T06:45:33.401Z,24
2018-11-10T06:46:05.481Z,28
2018-11-10T06:46:37.564Z,28
2018-11-10T06:47:09.731Z,32
2018-11-10T06:47:41.717Z,32
2018-11-10T06:48:13.793Z,36
2018-11-10T06:48:45.861Z,36
2018-11-10T06:49:17.950Z,36
2018-11-10T06:49:50.023Z,40
2018-11-10T06:50:22.116Z,40
2018-11-10T06:50:54.186Z,40
2018-11-10T06:51:26.552Z,44
2018-11-10T06:51:58.613Z,40
2018-11-10T06:52:30.734Z,44
2018-11-10T06:53:02.968Z,44
2018-11-10T06:53:34.969Z,48
2018-11-10T06:54:07.015Z,48
2018-11-10T06:54:39.097Z,48
2018-11-10T06:55:11.171Z,52
2018-11-10T06:55:43.244Z,52
2018-11-10T06:56:15.310Z,56
2018-11-10T06:56:47.398Z,56
2018-11-10T06:57:19.477Z,60
2018-11-10T06:57:51.537Z,56
2018-11-10T06:58:23.605Z,60
2018-11-10T06:58:55.686Z,56
2018-11-10T06:59:27.773Z,60
2018-11-10T06:59:59.847Z,60
2018-11-10T07:00:31.938Z,60
2018-11-10T07:01:03.999Z,60
2018-11-10T07:01:36.090Z,60
2018-11-10T07:02:08.110Z,56
2018-11-10T07:02:40.151Z,52
2018-11-10T07:03:12.303Z,56
2018-11-10T07:03:44.305Z,52
2018-11-10T07:04:16.365Z,52
2018-11-10T07:04:48.413Z,56
2018-11-10T07:05:20.481Z,56
2018-11-10T07:05:52.519Z,60
2018-11-10T07:06:24.593Z,64
2018-11-10T07:06:56.660Z,68
2018-11-10T07:07:28.727Z,72
2018-11-10T07:08:00.816Z,76
2018-11-10T07:08:32.875Z,80
2018-11-10T07:09:04.922Z,80
2018-11-10T07:09:37.081Z,84
2018-11-10T07:10:09.073Z,84
2018-11-10T07:10:41.124Z,88
2018-11-10T07:11:13.196Z,88
2018-11-10T07:11:45.256Z,92
2018-11-10T07:12:17.376Z,92
2018-11-10T07:12:49.410Z,92
2018-11-10T07:13:21.466Z,96
2018-11-10T07:13:53.529Z,100
2018-11-10T07:14:25.587Z,100
2018-11-10T07:14:57.677Z,108
2018-11-10T07:15:29.768Z,108
2018-11-10T07:16:01.854Z,112
2018-11-10T07:16:33.911Z,116
2018-11-10T07:17:05.981Z,116
2018-11-10T07:17:38.164Z,120
2018-11-10T07:18:10.188Z,120
2018-11-10T07:18:42.228Z,120
2018-11-10T07:19:14.274Z,120
2018-11-10T07:19:46.338Z,120
2018-11-10T07:20:18.401Z,120
2018-11-10T07:20:50.475Z,124
2018-11-10T07:21:22.500Z,120
2018-11-10T07:21:54.588Z,124
2018-11-10T07:22:26.658Z,124
2018-11-10T07:22:58.702Z,128
2018-11-10T07:23:30.779Z,128
2018-11-10T07:24:02.806Z,128
2018-11-10T07:24:34.895Z,132
2018-11-10T07:25:07.341Z,132
2018-11-10T07:25:39.346Z,136
2018-11-10T07:26:11.425Z,136
2018-11-10T07:26:43.470Z,136
2018-11-10T07:27:15.569Z,136
2018-11-10T07:27:47.659Z,132
2018-11-10T07:28:19.747Z,136
2018-11-10T07:28:51.822Z,132
2018-11-10T07:29:23.911Z,132
2018-11-10T07:29:55.983Z,128
2018-11-10T07:30:28.066Z,124
2018-11-10T07:31:00.720Z,124
2018-11-10T07:31:32.774Z,124
2018-11-10T07:32:05.004Z,124
2018-11-10T07:32:36.977Z,124
2018-11-10T07:33:09.029Z,120
2018-11-10T07:33:41.059Z,120
2018-11-10T07:34:13.150Z,120
2018-11-10T07:34:45.229Z,124
2018-11-10T07:35:17.325Z,124
2018-11-10T07:35:49.385Z,124
2018-11-10T07:36:21.483Z,124
2018-11-10T07:36:53.593Z,124
2018-11-10T07:37:25.752Z,124
2018-11-10T07:37:57.802Z,124
2018-11-10T07:38:29.886Z,124
2018-11-10T07:39:01.957Z,124
2018-11-10T07:39:34.014Z,124
2018-11-10T07:40:06.103Z,124
2018-11-10T07:40:38.162Z,124
2018-11-10T07:41:10.182Z,128
2018-11-10T07:41:42.263Z,124
2018-11-10T07:42:14.334Z,128
2018-11-10T07:42:46.449Z,128
2018-11-10T07:43:18.516Z,128
2018-11-10T07:43:50.624Z,128
2018-11-10T07:44:22.708Z,132
2018-11-10T07:44:54.780Z,132
2018-11-10T07:45:26.866Z,136
2018-11-10T07:45:58.942Z,140
2018-11-10T07:46:30.994Z,144
2018-11-10T07:47:03.083Z,148
2018-11-10T07:47:35.148Z,156
2018-11-10T07:48:07.210Z,160
2018-11-10T07:48:39.248Z,164
2018-11-10T07:49:11.334Z,172
2018-11-10T07:49:43.418Z,180
2018-11-10T07:50:15.488Z,184